Time;durP1;ratioP1;P1;durP2;ratioP2;P2;SDS_P1;SDS_P2;PMS_P1;PMS_P2;Temp;Humidity;BMP_temperature;BMP_pressure;BME280_temperature;BME280_humidity;BME280_pressure;Samples;Min_cycle;Max_cycle;Signal;HPM_P1;HPM_P2
2022/04/20 00:02:22;;;;;;;5.90;5.40;;;;;;;;;;5091161;28;20447;-76
2022/04/20 00:04:49;;;;;;;5.03;4.63;;;;;;;;;;5091331;28;20469;-75
2022/04/20 00:07:16;;;;;;;6.03;5.50;;;;;;;;;;5091719;28;20440;-76
2022/04/20 00:09:43;;;;;;;6.23;5.60;;;;;;;;;;5091397;28;20451;-75
2022/04/20 00:12:10;;;;;;;5.17;4.87;;;;;;;;;;5091448;28;20931;-76
2022/04/20 00:14:37;;;;;;;6.23;5.70;;;;;;;;;;5089746;28;20958;-76
2022/04/20 00:17:06;;;;;;;5.97;5.47;;;;;;;;;;5091600;28;20930;-77
2022/04/20 00:19:33;;;;;;;5.90;5.40;;;;;;;;;;5091417;28;20472;-77
2022/04/20 00:22:00;;;;;;;5.60;5.10;;;;;;;;;;5091430;28;20449;-76
2022/04/20 00:24:27;;;;;;;6.10;5.60;;;;;;;;;;5091004;28;20451;-75
2022/04/20 00:26:54;;;;;;;6.87;6.27;;;;;;;;;;5091651;28;20460;-77
2022/04/20 00:29:21;;;;;;;7.13;6.30;;;;;;;;;;5091643;28;20442;-76
2022/04/20 00:31:48;;;;;;;6.80;6.17;;;;;;;;;;5091496;28;20436;-75
2022/04/20 00:34:16;;;;;;;6.10;5.60;;;;;;;;;;5091121;28;20447;-76
2022/04/20 00:36:43;;;;;;;7.07;6.50;;;;;;;;;;5090970;28;20459;-75
2022/04/20 00:39:10;;;;;;;7.47;6.77;;;;;;;;;;5091466;28;20479;-77
2022/04/20 00:41:37;;;;;;;7.57;6.40;;;;;;;;;;5091463;28;20496;-77
2022/04/20 00:44:06;;;;;;;7.53;6.83;;;;;;;;;;5090943;28;20428;-76
2022/04/20 00:46:33;;;;;;;7.20;6.57;;;;;;;;;;5091256;28;20455;-75
2022/04/20 00:49:01;;;;;;;7.13;6.53;;;;;;;;;;5090486;28;20493;-75
2022/04/20 00:51:30;;;;;;;6.27;5.77;;;;;;;;;;5090849;28;20452;-76
2022/04/20 00:53:59;;;;;;;7.00;6.40;;;;;;;;;;5090760;28;20943;-75
2022/04/20 00:56:26;;;;;;;7.50;6.90;;;;;;;;;;5091456;28;20548;-75
2022/04/20 00:58:54;;;;;;;7.10;6.60;;;;;;;;;;5092718;28;20744;-76
2022/04/20 01:01:21;;;;;;;6.93;6.33;;;;;;;;;;5094579;28;20456;-76
2022/04/20 01:03:48;;;;;;;7.50;6.90;;;;;;;;;;5093990;28;20440;-76
2022/04/20 01:06:15;;;;;;;6.10;5.60;;;;;;;;;;5095895;28;20463;-75
2022/04/20 01:08:45;;;;;;;6.73;6.13;;;;;;;;;;5095108;28;20454;-75
2022/04/20 01:11:12;;;;;;;6.40;6.00;;;;;;;;;;5094236;28;20490;-76
2022/04/20 01:13:39;;;;;;;6.47;5.93;;;;;;;;;;5090891;28;20985;-75
2022/04/20 01:16:06;;;;;;;6.63;6.03;;;;;;;;;;5091583;28;20464;-76
2022/04/20 01:18:33;;;;;;;7.03;6.53;;;;;;;;;;5091452;28;21071;-75
2022/04/20 01:21:02;;;;;;;7.10;6.60;;;;;;;;;;5091015;28;20447;-75
2022/04/20 01:23:30;;;;;;;7.60;6.50;;;;;;;;;;5090799;28;20813;-76
2022/04/20 01:25:57;;;;;;;6.23;5.73;;;;;;;;;;5091010;28;20456;-75
2022/04/20 01:28:24;;;;;;;6.50;6.00;;;;;;;;;;5090789;28;20475;-76
2022/04/20 01:30:51;;;;;;;8.23;6.60;;;;;;;;;;5090711;28;20465;-77
2022/04/20 01:33:18;;;;;;;6.70;6.20;;;;;;;;;;5090756;28;20439;-75
2022/04/20 01:35:47;;;;;;;6.50;6.10;;;;;;;;;;5091018;28;20464;-75
2022/04/20 01:38:15;;;;;;;6.63;5.97;;;;;;;;;;5090604;28;20450;-75
2022/04/20 01:40:43;;;;;;;7.13;6.37;;;;;;;;;;5091632;28;20456;-75
2022/04/20 01:43:10;;;;;;;8.40;6.43;;;;;;;;;;5090357;28;20863;-75
2022/04/20 01:45:37;;;;;;;7.07;6.47;;;;;;;;;;5090366;28;20472;-75
2022/04/20 01:48:06;;;;;;;7.90;6.60;;;;;;;;;;5090678;28;20459;-75
2022/04/20 01:50:33;;;;;;;7.87;7.20;;;;;;;;;;5090867;28;20493;-76
2022/04/20 01:53:00;;;;;;;7.53;6.90;;;;;;;;;;5090709;28;20493;-75
2022/04/20 01:55:29;;;;;;;7.60;7.00;;;;;;;;;;5090659;28;20986;-75
2022/04/20 01:57:56;;;;;;;8.07;7.27;;;;;;;;;;5091011;28;20448;-75
2022/04/20 02:00:23;;;;;;;7.00;6.50;;;;;;;;;;5093932;28;20483;-76
2022/04/20 02:02:49;;;;;;;6.43;5.83;;;;;;;;;;5093888;28;20459;-76
2022/04/20 02:05:16;;;;;;;7.37;6.63;;;;;;;;;;5094229;28;20494;-75
2022/04/20 02:07:44;;;;;;;6.57;6.07;;;;;;;;;;5094223;28;20439;-76
2022/04/20 02:10:11;;;;;;;7.70;7.00;;;;;;;;;;5093822;28;20497;-75
2022/04/20 02:12:39;;;;;;;7.07;6.40;;;;;;;;;;5093135;28;20455;-76
2022/04/20 02:15:07;;;;;;;7.77;6.37;;;;;;;;;;5093472;28;20464;-75
2022/04/20 02:17:36;;;;;;;7.40;6.80;;;;;;;;;;5093678;28;20443;-75
2022/04/20 02:20:03;;;;;;;7.90;7.20;;;;;;;;;;5093627;28;20842;-75
2022/04/20 02:22:30;;;;;;;7.00;6.50;;;;;;;;;;5093509;28;20446;-77
2022/04/20 02:24:59;;;;;;;9.03;6.53;;;;;;;;;;5093195;28;20459;-75
2022/04/20 02:27:26;;;;;;;7.30;6.80;;;;;;;;;;5093667;28;20475;-75
2022/04/20 02:29:55;;;;;;;7.63;7.13;;;;;;;;;;5093788;28;20432;-75
2022/04/20 02:32:22;;;;;;;8.07;7.30;;;;;;;;;;5093496;28;20451;-76
2022/04/20 02:34:49;;;;;;;8.30;7.70;;;;;;;;;;5093055;28;20451;-75
2022/04/20 02:37:16;;;;;;;8.10;7.40;;;;;;;;;;5093217;28;20446;-75
2022/04/20 02:39:44;;;;;;;8.20;7.07;;;;;;;;;;5093162;28;20548;-75
2022/04/20 02:42:12;;;;;;;7.57;6.97;;;;;;;;;;5093637;28;20436;-76
2022/04/20 02:44:39;;;;;;;8.00;7.40;;;;;;;;;;5092801;28;20444;-75
2022/04/20 02:47:08;;;;;;;8.13;7.40;;;;;;;;;;5093091;28;20962;-75
2022/04/20 02:49:36;;;;;;;8.07;7.37;;;;;;;;;;5093152;28;20443;-76
2022/04/20 02:52:03;;;;;;;8.27;7.67;;;;;;;;;;5092864;28;20448;-76
2022/04/20 02:54:30;;;;;;;7.00;6.50;;;;;;;;;;5092666;28;20447;-74
2022/04/20 02:56:57;;;;;;;7.93;7.33;;;;;;;;;;5093101;28;20488;-75
2022/04/20 02:59:24;;;;;;;7.40;6.70;;;;;;;;;;5093174;28;20476;-75
2022/04/20 03:01:51;;;;;;;7.33;6.67;;;;;;;;;;5092823;28;20448;-75
2022/04/20 03:04:19;;;;;;;7.10;6.60;;;;;;;;;;5092623;28;20440;-75
2022/04/20 03:06:46;;;;;;;8.47;7.77;;;;;;;;;;5092375;28;20994;-75
2022/04/20 03:09:13;;;;;;;7.40;6.80;;;;;;;;;;5092681;28;20454;-75
2022/04/20 03:11:41;;;;;;;6.63;6.13;;;;;;;;;;5092059;28;20827;-75
2022/04/20 03:14:08;;;;;;;7.80;7.30;;;;;;;;;;5092542;28;20478;-75
2022/04/20 03:16:35;;;;;;;7.63;6.67;;;;;;;;;;5092582;28;20570;-75
2022/04/20 03:19:02;;;;;;;7.43;6.73;;;;;;;;;;5092371;28;20478;-76
2022/04/20 03:21:31;;;;;;;6.60;6.10;;;;;;;;;;5092783;28;20793;-75
2022/04/20 03:23:58;;;;;;;7.50;6.67;;;;;;;;;;5092242;28;20440;-75
2022/04/20 03:26:25;;;;;;;8.20;7.10;;;;;;;;;;5092594;28;20459;-77
2022/04/20 03:28:52;;;;;;;6.73;6.13;;;;;;;;;;5092223;28;20451;-75
2022/04/20 03:31:19;;;;;;;7.07;6.47;;;;;;;;;;5092283;28;20799;-75
2022/04/20 03:33:46;;;;;;;7.30;6.57;;;;;;;;;;5092203;28;20444;-75
2022/04/20 03:36:13;;;;;;;6.63;6.17;;;;;;;;;;5092327;28;20565;-76
2022/04/20 03:38:41;;;;;;;6.93;6.33;;;;;;;;;;5092411;28;20492;-75
2022/04/20 03:41:09;;;;;;;7.97;7.37;;;;;;;;;;5092694;28;20447;-75
2022/04/20 03:43:36;;;;;;;6.70;6.20;;;;;;;;;;5091683;28;20478;-74
2022/04/20 03:46:05;;;;;;;8.17;7.43;;;;;;;;;;5092675;28;20464;-77
2022/04/20 03:48:32;;;;;;;6.97;6.47;;;;;;;;;;5091870;28;20532;-76
2022/04/20 03:50:59;;;;;;;7.63;6.93;;;;;;;;;;5092389;28;20465;-75
2022/04/20 03:53:26;;;;;;;7.10;6.60;;;;;;;;;;5091976;28;20448;-76
2022/04/20 03:55:55;;;;;;;8.23;7.53;;;;;;;;;;5092146;28;20470;-75
2022/04/20 03:58:22;;;;;;;6.70;6.20;;;;;;;;;;5092000;28;20443;-75
2022/04/20 04:00:49;;;;;;;7.53;6.23;;;;;;;;;;5091680;28;20476;-77
2022/04/20 04:03:16;;;;;;;7.50;6.90;;;;;;;;;;5091622;28;20454;-75
2022/04/20 04:05:43;;;;;;;7.27;6.63;;;;;;;;;;5092132;28;20467;-75
2022/04/20 04:08:10;;;;;;;7.53;6.63;;;;;;;;;;5092269;28;20450;-75
2022/04/20 04:10:37;;;;;;;8.03;7.23;;;;;;;;;;5091805;28;20440;-75
2022/04/20 04:13:06;;;;;;;7.83;7.23;;;;;;;;;;5091339;28;20446;-75
2022/04/20 04:15:33;;;;;;;7.80;7.03;;;;;;;;;;5091522;28;20468;-76
2022/04/20 04:18:02;;;;;;;7.93;6.60;;;;;;;;;;5091677;28;20986;-75
2022/04/20 04:20:29;;;;;;;7.70;7.10;;;;;;;;;;5091465;28;20834;-75
2022/04/20 04:22:56;;;;;;;6.60;6.00;;;;;;;;;;5091466;28;20444;-75
2022/04/20 04:25:23;;;;;;;6.93;6.43;;;;;;;;;;5091387;28;20460;-76
2022/04/20 04:27:50;;;;;;;7.60;7.00;;;;;;;;;;5091461;28;20446;-74
2022/04/20 04:30:19;;;;;;;7.90;7.27;;;;;;;;;;5091531;28;20439;-75
2022/04/20 04:32:47;;;;;;;7.07;6.57;;;;;;;;;;5091638;28;20444;-74
2022/04/20 04:35:14;;;;;;;8.83;7.40;;;;;;;;;;5091604;28;20456;-75
2022/04/20 04:37:41;;;;;;;6.90;6.30;;;;;;;;;;5091402;28;20462;-76
2022/04/20 04:40:08;;;;;;;7.53;7.03;;;;;;;;;;5091130;28;21082;-75
2022/04/20 04:42:35;;;;;;;7.97;7.10;;;;;;;;;;5090695;28;20454;-76
2022/04/20 04:50:29;;;;;;;7.90;7.20;;;;;;;;;;5090888;28;20434;-76
2022/04/20 04:52:57;;;;;;;8.00;7.30;;;;;;;;;;5090503;28;20436;-78
2022/04/20 04:55:24;;;;;;;8.03;7.33;;;;;;;;;;5090956;28;20461;-77
2022/04/20 04:57:51;;;;;;;8.50;7.70;;;;;;;;;;5091163;28;20438;-76
2022/04/20 05:00:18;;;;;;;7.10;6.50;;;;;;;;;;5090802;28;20477;-77
2022/04/20 05:02:46;;;;;;;7.50;6.90;;;;;;;;;;5090553;28;20470;-76
2022/04/20 05:05:13;;;;;;;8.70;7.60;;;;;;;;;;5090871;28;20472;-75
2022/04/20 05:07:40;;;;;;;8.20;7.60;;;;;;;;;;5090408;28;20464;-77
2022/04/20 05:10:08;;;;;;;7.47;6.97;;;;;;;;;;5090492;28;20634;-76
2022/04/20 05:12:36;;;;;;;8.47;7.50;;;;;;;;;;5090813;28;20447;-76
2022/04/20 05:15:03;;;;;;;9.93;8.27;;;;;;;;;;5090762;28;20469;-75
2022/04/20 05:17:30;;;;;;;8.93;7.73;;;;;;;;;;5090871;28;20821;-77
2022/04/20 05:19:59;;;;;;;7.97;7.27;;;;;;;;;;5090321;28;20484;-77
2022/04/20 05:22:26;;;;;;;8.40;7.67;;;;;;;;;;5091015;28;20440;-75
2022/04/20 05:24:53;;;;;;;8.83;6.73;;;;;;;;;;5091284;28;20498;-76
2022/04/20 05:27:20;;;;;;;7.77;7.07;;;;;;;;;;5090608;28;20446;-76
2022/04/20 05:29:47;;;;;;;9.33;7.80;;;;;;;;;;5090365;28;20948;-76
2022/04/20 05:32:14;;;;;;;8.33;7.70;;;;;;;;;;5090902;28;20458;-75
2022/04/20 05:34:41;;;;;;;8.10;7.50;;;;;;;;;;5088955;28;20451;-77
2022/04/20 05:42:39;;;;;;;8.30;7.60;;;;;;;;;;5074371;28;20422;-76
2022/04/20 05:45:07;;;;;;;7.70;7.07;;;;;;;;;;5073951;28;20462;-75
2022/04/20 05:47:34;;;;;;;8.67;7.47;;;;;;;;;;5074261;28;20443;-75
2022/04/20 05:50:01;;;;;;;8.23;7.63;;;;;;;;;;5074005;28;20511;-76
2022/04/20 05:52:29;;;;;;;8.93;7.37;;;;;;;;;;5073705;28;20447;-75
2022/04/20 05:54:57;;;;;;;8.90;8.10;;;;;;;;;;5073765;28;21051;-75
2022/04/20 05:57:24;;;;;;;8.97;7.47;;;;;;;;;;5084810;28;20545;-75
2022/04/20 05:59:51;;;;;;;7.47;6.77;;;;;;;;;;5091725;28;20473;-77
2022/04/20 06:02:18;;;;;;;7.13;6.53;;;;;;;;;;5073609;28;20847;-74
2022/04/20 06:04:45;;;;;;;8.20;7.40;;;;;;;;;;5073258;28;20459;-74
2022/04/20 06:07:12;;;;;;;7.77;7.17;;;;;;;;;;5085843;28;20453;-74
2022/04/20 06:09:41;;;;;;;7.43;6.73;;;;;;;;;;5090582;28;20512;-74
2022/04/20 06:12:08;;;;;;;7.83;7.23;;;;;;;;;;5085204;28;20448;-75
2022/04/20 06:14:35;;;;;;;7.10;6.60;;;;;;;;;;5093451;28;20450;-76
2022/04/20 06:17:02;;;;;;;8.70;7.77;;;;;;;;;;5090226;28;20448;-77
2022/04/20 06:19:29;;;;;;;6.80;6.30;;;;;;;;;;5073367;28;20452;-75
2022/04/20 06:21:56;;;;;;;8.73;8.00;;;;;;;;;;5073464;28;20470;-77
2022/04/20 06:24:23;;;;;;;6.67;6.17;;;;;;;;;;5073178;28;20913;-75
2022/04/20 06:26:52;;;;;;;7.07;6.50;;;;;;;;;;5075591;28;20494;-75
2022/04/20 06:29:19;;;;;;;6.60;6.13;;;;;;;;;;5088762;28;20448;-75
2022/04/20 06:31:46;;;;;;;6.83;5.90;;;;;;;;;;5093325;28;20436;-75
2022/04/20 06:34:13;;;;;;;7.10;6.40;;;;;;;;;;5094144;28;20455;-77
2022/04/20 06:36:40;;;;;;;7.17;6.57;;;;;;;;;;5093590;28;20825;-76
2022/04/20 06:39:07;;;;;;;6.77;6.20;;;;;;;;;;5093122;28;20444;-77
2022/04/20 06:41:34;;;;;;;7.83;7.13;;;;;;;;;;5093341;28;20479;-76
2022/04/20 06:44:02;;;;;;;7.03;6.43;;;;;;;;;;5092829;28;20447;-75
2022/04/20 06:46:29;;;;;;;7.70;6.90;;;;;;;;;;5092841;28;20939;-77
2022/04/20 06:48:56;;;;;;;7.37;6.77;;;;;;;;;;5094427;28;20465;-75
2022/04/20 06:51:23;;;;;;;6.17;5.77;;;;;;;;;;5093742;28;20440;-76
2022/04/20 06:59:23;;;;;;;7.13;6.63;;;;;;;;;;5092567;28;20412;-75
2022/04/20 07:01:51;;;;;;;7.70;7.10;;;;;;;;;;5092921;28;20864;-76
2022/04/20 07:04:18;;;;;;;6.03;5.63;;;;;;;;;;5092341;28;20440;-76
2022/04/20 07:06:45;;;;;;;6.40;5.90;;;;;;;;;;5093215;28;20455;-75
2022/04/20 07:09:12;;;;;;;6.83;6.33;;;;;;;;;;5092792;28;20517;-77
2022/04/20 07:11:39;;;;;;;7.20;6.60;;;;;;;;;;5092334;28;20432;-76
2022/04/20 07:14:07;;;;;;;6.43;6.03;;;;;;;;;;5092014;28;20458;-77
2022/04/20 07:16:35;;;;;;;7.00;6.43;;;;;;;;;;5092357;28;20554;-76
2022/04/20 07:19:02;;;;;;;7.03;6.43;;;;;;;;;;5086734;28;20467;-76
2022/04/20 07:21:29;;;;;;;5.97;5.53;;;;;;;;;;5092635;28;20554;-77
2022/04/20 07:23:56;;;;;;;6.57;5.97;;;;;;;;;;5072947;28;20479;-77
2022/04/20 07:26:26;;;;;;;6.70;6.20;;;;;;;;;;5072095;28;20473;-75
2022/04/20 07:28:55;;;;;;;8.57;6.73;;;;;;;;;;5072001;28;20480;-76
2022/04/20 07:31:22;;;;;;;7.17;6.50;;;;;;;;;;5072031;28;20872;-76
2022/04/20 07:33:50;;;;;;;6.40;5.90;;;;;;;;;;5071801;28;20444;-75
2022/04/20 07:36:17;;;;;;;6.83;6.20;;;;;;;;;;5071646;28;20567;-76
2022/04/20 07:38:45;;;;;;;6.77;6.20;;;;;;;;;;5071923;28;20468;-74
2022/04/20 07:41:12;;;;;;;6.47;5.97;;;;;;;;;;5072053;28;20503;-75
2022/04/20 07:43:39;;;;;;;6.40;5.90;;;;;;;;;;5071445;28;20939;-76
2022/04/20 07:46:06;;;;;;;6.40;5.90;;;;;;;;;;5072300;28;20460;-74
2022/04/20 07:48:33;;;;;;;6.50;5.90;;;;;;;;;;5071805;28;20444;-75
2022/04/20 07:51:01;;;;;;;6.30;5.90;;;;;;;;;;5072084;28;20467;-75
2022/04/20 07:53:28;;;;;;;7.33;5.77;;;;;;;;;;5071514;28;20472;-77
2022/04/20 07:55:55;;;;;;;6.53;6.07;;;;;;;;;;5071746;28;20460;-76
2022/04/20 07:58:22;;;;;;;5.67;5.27;;;;;;;;;;5071255;28;20444;-76
2022/04/20 08:00:51;;;;;;;6.20;5.60;;;;;;;;;;5071469;28;20820;-74
2022/04/20 08:03:19;;;;;;;6.20;5.67;;;;;;;;;;5071515;28;20448;-77
2022/04/20 08:05:49;;;;;;;8.00;7.30;;;;;;;;;;5083736;28;20464;-76
2022/04/20 08:08:17;;;;;;;5.47;4.97;;;;;;;;;;5083129;28;20444;-76
2022/04/20 08:10:45;;;;;;;6.17;5.67;;;;;;;;;;5074033;28;20444;-77
2022/04/20 08:15:57;;;;;;;5.87;5.47;;;;;;;;;;5071329;28;20451;-76
2022/04/20 08:18:24;;;;;;;6.17;5.67;;;;;;;;;;5071484;28;20441;-75
2022/04/20 08:20:51;;;;;;;6.07;5.60;;;;;;;;;;5071134;28;20487;-75
2022/04/20 08:23:20;;;;;;;6.17;5.67;;;;;;;;;;5071036;28;20455;-75
2022/04/20 08:25:48;;;;;;;6.40;6.00;;;;;;;;;;5071432;28;20483;-77
2022/04/20 08:28:15;;;;;;;5.90;5.50;;;;;;;;;;5071432;28;20448;-75
2022/04/20 08:30:42;;;;;;;6.50;5.90;;;;;;;;;;5071367;28;20437;-76
2022/04/20 08:33:09;;;;;;;5.67;5.27;;;;;;;;;;5071182;28;20940;-75
2022/04/20 08:35:37;;;;;;;6.47;5.87;;;;;;;;;;5071338;28;20457;-76
2022/04/20 08:38:04;;;;;;;5.90;5.40;;;;;;;;;;5069799;28;20448;-76
2022/04/20 08:40:34;;;;;;;6.10;5.60;;;;;;;;;;5071132;28;20445;-78
2022/04/20 08:43:02;;;;;;;5.90;5.40;;;;;;;;;;5070916;28;20494;-76
2022/04/20 08:45:29;;;;;;;6.20;5.67;;;;;;;;;;5071101;28;20469;-77
2022/04/20 08:47:57;;;;;;;5.50;5.07;;;;;;;;;;5070907;28;20856;-75
2022/04/20 08:50:25;;;;;;;6.60;6.13;;;;;;;;;;5070676;28;20514;-76
2022/04/20 08:52:52;;;;;;;5.80;5.30;;;;;;;;;;5070929;28;20441;-77
2022/04/20 08:55:20;;;;;;;5.43;5.03;;;;;;;;;;5071033;28;20464;-76
2022/04/20 08:57:49;;;;;;;5.53;5.03;;;;;;;;;;5070984;28;20448;-75
2022/04/20 09:00:21;;;;;;;5.37;4.90;;;;;;;;;;5071145;28;20437;-75
2022/04/20 09:02:49;;;;;;;5.00;4.60;;;;;;;;;;5071131;28;20439;-77
2022/04/20 09:05:16;;;;;;;4.53;4.23;;;;;;;;;;5071532;28;20510;-76
2022/04/20 09:07:43;;;;;;;4.47;4.17;;;;;;;;;;5090461;28;20996;-75
2022/04/20 09:10:10;;;;;;;5.47;4.30;;;;;;;;;;5095279;28;20447;-75
2022/04/20 09:12:41;;;;;;;4.53;4.23;;;;;;;;;;5095419;28;20435;-75
2022/04/20 09:15:11;;;;;;;5.73;4.37;;;;;;;;;;5095199;28;20524;-75
2022/04/20 09:17:41;;;;;;;4.90;4.60;;;;;;;;;;5094975;28;20695;-77
2022/04/20 09:20:09;;;;;;;3.80;3.60;;;;;;;;;;5094901;28;20728;-76
2022/04/20 09:22:36;;;;;;;4.27;3.97;;;;;;;;;;5094587;28;20562;-76
2022/04/20 09:25:06;;;;;;;4.50;4.10;;;;;;;;;;5094863;28;20495;-76
2022/04/20 09:27:34;;;;;;;4.03;3.73;;;;;;;;;;5095084;28;20530;-77
2022/04/20 09:30:01;;;;;;;4.60;4.20;;;;;;;;;;5094663;28;20439;-76
2022/04/20 09:32:39;;;;;;;5.10;4.70;;;;;;;;;;5094793;28;20467;-77
2022/04/20 09:35:07;;;;;;;4.20;3.80;;;;;;;;;;5094657;28;20471;-76
2022/04/20 09:37:36;;;;;;;4.50;4.20;;;;;;;;;;5094593;28;20867;-76
2022/04/20 09:40:04;;;;;;;3.90;3.60;;;;;;;;;;5094758;28;20479;-77
2022/04/20 09:42:33;;;;;;;4.40;4.00;;;;;;;;;;5094255;28;20904;-75
2022/04/20 09:45:01;;;;;;;3.70;3.40;;;;;;;;;;5095246;28;20460;-77
2022/04/20 09:50:16;;;;;;;3.90;3.60;;;;;;;;;;5096588;28;20891;-75
2022/04/20 09:52:44;;;;;;;4.20;3.90;;;;;;;;;;5096510;28;20443;-76
2022/04/20 09:55:13;;;;;;;3.80;3.50;;;;;;;;;;5096040;28;21002;-76
2022/04/20 09:57:40;;;;;;;3.83;3.50;;;;;;;;;;5095828;28;20448;-77
2022/04/20 10:00:10;;;;;;;4.70;4.30;;;;;;;;;;5095034;28;20444;-76
2022/04/20 10:02:44;;;;;;;4.00;3.60;;;;;;;;;;5094621;28;20480;-76
2022/04/20 10:05:12;;;;;;;4.07;3.70;;;;;;;;;;5094125;28;20474;-76
2022/04/20 10:07:40;;;;;;;3.63;3.43;;;;;;;;;;5093637;28;20720;-76
2022/04/20 10:10:08;;;;;;;7.80;4.53;;;;;;;;;;5094126;28;20452;-76
2022/04/20 10:12:37;;;;;;;4.30;4.00;;;;;;;;;;5094116;28;20459;-76
2022/04/20 10:17:53;;;;;;;4.60;3.80;;;;;;;;;;5093698;28;20442;-77
2022/04/20 10:20:20;;;;;;;4.20;3.90;;;;;;;;;;5093379;28;20946;-75
2022/04/20 10:22:49;;;;;;;7.63;4.00;;;;;;;;;;5093429;28;20497;-76
2022/04/20 10:25:16;;;;;;;3.80;3.60;;;;;;;;;;5093810;28;20475;-76
2022/04/20 10:27:48;;;;;;;4.30;4.00;;;;;;;;;;5093371;28;20935;-77
2022/04/20 10:30:17;;;;;;;4.17;3.97;;;;;;;;;;5093537;28;20465;-75
2022/04/20 10:32:51;;;;;;;4.33;3.83;;;;;;;;;;5093282;28;20514;-77
2022/04/20 10:35:18;;;;;;;3.90;3.47;;;;;;;;;;5093671;28;20559;-77
2022/04/20 10:38:07;;;;;;;3.73;3.53;;;;;;;;;;5093827;28;20444;-76
2022/04/20 10:40:34;;;;;;;4.73;4.33;;;;;;;;;;5093734;28;20448;-78
2022/04/20 10:43:21;;;;;;;4.10;3.80;;;;;;;;;;5093605;28;20791;-76
2022/04/20 10:46:05;;;;;;;3.47;3.27;;;;;;;;;;5093863;28;20559;-77
2022/04/20 10:48:43;;;;;;;3.93;3.63;;;;;;;;;;5093235;28;20451;-77
2022/04/20 10:51:14;;;;;;;4.60;3.90;;;;;;;;;;5092970;28;20542;-76
2022/04/20 10:53:43;;;;;;;4.47;3.40;;;;;;;;;;5092715;28;20452;-76
2022/04/20 10:56:11;;;;;;;10.33;3.50;;;;;;;;;;5093177;28;20493;-76
2022/04/20 10:58:39;;;;;;;4.47;3.53;;;;;;;;;;5092961;28;20530;-76
2022/04/20 11:01:10;;;;;;;3.23;2.93;;;;;;;;;;5092616;28;20448;-76
2022/04/20 11:03:53;;;;;;;4.43;4.13;;;;;;;;;;5089692;28;20455;-76
2022/04/20 11:06:20;;;;;;;3.50;3.20;;;;;;;;;;5094554;28;20468;-76
2022/04/20 11:08:51;;;;;;;4.23;3.70;;;;;;;;;;5084500;28;20454;-76
2022/04/20 11:19:53;;;;;;;3.53;3.30;;;;;;;;;;5072423;28;20412;-76
2022/04/20 11:22:21;;;;;;;4.40;4.00;;;;;;;;;;5072674;28;20557;-76
2022/04/20 11:25:02;;;;;;;3.60;3.40;;;;;;;;;;5072415;28;20453;-75
2022/04/20 11:27:34;;;;;;;4.03;3.60;;;;;;;;;;5072746;28;20451;-76
2022/04/20 11:30:02;;;;;;;3.50;3.27;;;;;;;;;;5072714;28;20476;-76
2022/04/20 11:32:29;;;;;;;3.53;3.33;;;;;;;;;;5071791;28;20950;-77
2022/04/20 11:35:05;;;;;;;3.60;3.30;;;;;;;;;;5072074;28;21019;-77
2022/04/20 11:37:33;;;;;;;4.03;3.50;;;;;;;;;;5073030;28;20444;-75
2022/04/20 11:40:11;;;;;;;3.83;3.47;;;;;;;;;;5072487;28;20483;-76
2022/04/20 11:42:40;;;;;;;5.63;4.10;;;;;;;;;;5072277;28;20480;-76
2022/04/20 11:45:07;;;;;;;4.33;4.10;;;;;;;;;;5072392;28;20460;-75
2022/04/20 11:47:39;;;;;;;3.73;3.53;;;;;;;;;;5072688;28;20982;-74
2022/04/20 11:50:09;;;;;;;3.93;3.63;;;;;;;;;;5074163;28;20468;-76
2022/04/20 11:52:36;;;;;;;4.07;3.77;;;;;;;;;;5076152;28;20437;-74
2022/04/20 11:55:07;;;;;;;3.40;3.20;;;;;;;;;;5076183;28;20467;-76
2022/04/20 11:57:34;;;;;;;3.53;3.23;;;;;;;;;;5075701;28;20449;-75
2022/04/20 12:00:04;;;;;;;4.20;3.80;;;;;;;;;;5075978;28;20944;-76
2022/04/20 12:02:31;;;;;;;4.20;3.90;;;;;;;;;;5074986;28;21169;-76
2022/04/20 12:05:04;;;;;;;4.43;4.13;;;;;;;;;;5077001;28;20471;-76
2022/04/20 12:07:34;;;;;;;4.23;3.90;;;;;;;;;;5082384;28;20433;-76
2022/04/20 12:10:03;;;;;;;4.00;3.80;;;;;;;;;;5082797;28;20444;-75
2022/04/20 12:12:33;;;;;;;3.70;3.40;;;;;;;;;;5083023;28;20448;-77
2022/04/20 12:15:07;;;;;;;4.90;4.50;;;;;;;;;;5082038;28;20477;-76
2022/04/20 12:17:35;;;;;;;3.87;3.67;;;;;;;;;;5093766;28;20451;-75
2022/04/20 12:20:03;;;;;;;4.83;3.80;;;;;;;;;;5099358;28;20796;-77
2022/04/20 12:22:30;;;;;;;9.80;4.20;;;;;;;;;;5083153;28;20476;-76
2022/04/20 12:25:05;;;;;;;4.17;3.77;;;;;;;;;;5078976;28;20518;-78
2022/04/20 12:27:49;;;;;;;4.60;3.73;;;;;;;;;;5079389;28;20440;-75
2022/04/20 12:30:17;;;;;;;4.20;3.90;;;;;;;;;;5080159;28;20627;-75
2022/04/20 12:32:45;;;;;;;3.83;3.63;;;;;;;;;;5080195;28;20429;-76
2022/04/20 12:35:12;;;;;;;3.90;3.60;;;;;;;;;;5074563;28;20464;-74
2022/04/20 12:37:41;;;;;;;4.20;3.90;;;;;;;;;;5071619;28;20441;-76
2022/04/20 12:40:22;;;;;;;3.60;3.40;;;;;;;;;;5071202;28;20451;-76
2022/04/20 12:43:00;;;;;;;5.70;3.70;;;;;;;;;;5070808;28;20484;-75
2022/04/20 12:45:27;;;;;;;3.80;3.27;;;;;;;;;;5071222;28;20472;-75
2022/04/20 12:48:03;;;;;;;3.50;3.20;;;;;;;;;;5074194;28;20940;-76
2022/04/20 12:50:35;;;;;;;3.67;3.40;;;;;;;;;;5085876;28;20494;-75
2022/04/20 12:53:02;;;;;;;3.60;3.30;;;;;;;;;;5088264;28;20433;-78
2022/04/20 12:55:43;;;;;;;3.73;3.43;;;;;;;;;;5084330;28;20460;-76
2022/04/20 13:03:45;;;;;;;3.17;2.97;;;;;;;;;;5090876;28;20673;-77
2022/04/20 13:06:13;;;;;;;4.60;3.73;;;;;;;;;;5088299;28;21049;-77
2022/04/20 13:08:45;;;;;;;3.77;3.43;;;;;;;;;;5087110;28;20479;-77
2022/04/20 13:11:13;;;;;;;2.80;2.60;;;;;;;;;;5070460;28;20542;-78
2022/04/20 13:16:53;;;;;;;3.00;2.80;;;;;;;;;;5057618;28;20514;-75
2022/04/20 13:19:21;;;;;;;3.37;3.17;;;;;;;;;;5070275;28;20440;-76
2022/04/20 13:21:48;;;;;;;3.70;3.07;;;;;;;;;;5070741;28;20444;-76
2022/04/20 13:27:53;;;;;;;3.43;3.20;;;;;;;;;;5070821;28;20436;-76
2022/04/20 13:29:47;;;;;;;3.47;3.27;;;;;;;;;;5071458;28;20474;-75
2022/04/20 13:32:15;;;;;;;3.13;2.93;;;;;;;;;;5071424;28;20441;-77
2022/04/20 13:34:42;;;;;;;3.10;2.90;;;;;;;;;;5070667;28;20889;-76
2022/04/20 13:37:09;;;;;;;3.23;3.03;;;;;;;;;;5071439;28;20472;-76
2022/04/20 13:39:36;;;;;;;2.70;2.50;;;;;;;;;;5071048;28;20440;-76
2022/04/20 13:42:04;;;;;;;5.13;2.87;;;;;;;;;;5071144;28;20476;-76
2022/04/20 13:44:32;;;;;;;2.90;2.70;;;;;;;;;;5071876;28;20444;-78
2022/04/20 13:47:00;;;;;;;4.53;2.70;;;;;;;;;;5071382;28;20460;-78
2022/04/20 13:49:28;;;;;;;3.30;3.00;;;;;;;;;;5072643;28;20823;-78
2022/04/20 13:51:55;;;;;;;3.63;3.40;;;;;;;;;;5088503;28;20959;-78
2022/04/20 13:54:22;;;;;;;3.43;3.13;;;;;;;;;;5083065;28;20440;-76
2022/04/20 13:56:50;;;;;;;3.23;2.87;;;;;;;;;;5077362;28;20514;-76
2022/04/20 13:59:17;;;;;;;3.10;2.90;;;;;;;;;;5080201;28;20448;-75
2022/04/20 14:01:45;;;;;;;3.60;2.80;;;;;;;;;;5090017;28;20998;-77
2022/04/20 14:04:14;;;;;;;2.70;2.57;;;;;;;;;;5097399;28;20482;-76
2022/04/20 14:06:44;;;;;;;2.90;2.70;;;;;;;;;;5090350;28;20456;-77
2022/04/20 14:09:12;;;;;;;3.47;3.17;;;;;;;;;;5094895;28;20850;-78
2022/04/20 14:11:39;;;;;;;3.43;3.23;;;;;;;;;;5100092;28;20957;-77
2022/04/20 14:14:06;;;;;;;3.30;3.10;;;;;;;;;;5099463;28;20440;-76
2022/04/20 14:16:33;;;;;;;3.33;3.13;;;;;;;;;;5100599;28;20467;-75
2022/04/20 14:19:00;;;;;;;3.30;3.10;;;;;;;;;;5091620;28;20497;-76
2022/04/20 14:21:27;;;;;;;3.93;3.73;;;;;;;;;;5090396;28;20986;-76
2022/04/20 14:23:56;;;;;;;3.80;3.17;;;;;;;;;;5094295;28;20994;-76
2022/04/20 14:32:12;;;;;;;3.80;3.50;;;;;;;;;;5089839;28;20436;-78
2022/04/20 14:34:39;;;;;;;3.70;3.40;;;;;;;;;;5094127;28;21000;-77
2022/04/20 14:37:07;;;;;;;3.23;2.93;;;;;;;;;;5074241;28;20952;-76
2022/04/20 14:39:36;;;;;;;3.63;3.20;;;;;;;;;;5074441;28;20440;-77
2022/04/20 14:42:04;;;;;;;3.50;3.20;;;;;;;;;;5074669;28;20445;-76
2022/04/20 14:44:34;;;;;;;3.30;3.00;;;;;;;;;;5074308;28;20448;-76
2022/04/20 14:47:01;;;;;;;3.90;3.60;;;;;;;;;;5074268;28;20602;-76
2022/04/20 14:49:28;;;;;;;3.63;3.33;;;;;;;;;;5074421;28;20480;-76
2022/04/20 14:51:56;;;;;;;4.40;3.23;;;;;;;;;;5074503;28;20440;-78
2022/04/20 14:54:23;;;;;;;3.10;2.90;;;;;;;;;;5074254;28;20480;-76
2022/04/20 14:56:51;;;;;;;3.10;2.90;;;;;;;;;;5074071;28;20487;-76
2022/04/20 14:59:18;;;;;;;3.73;3.27;;;;;;;;;;5073259;28;20452;-76
2022/04/20 15:01:45;;;;;;;3.47;3.17;;;;;;;;;;5073383;28;20444;-76
2022/04/20 15:04:12;;;;;;;4.10;3.20;;;;;;;;;;5073241;28;20576;-77
2022/04/20 15:06:39;;;;;;;3.33;3.13;;;;;;;;;;5082582;28;21005;-76
2022/04/20 15:09:08;;;;;;;3.30;3.03;;;;;;;;;;5093410;28;20451;-78
2022/04/20 15:11:36;;;;;;;4.73;2.90;;;;;;;;;;5093046;28;20447;-76
2022/04/20 15:14:04;;;;;;;3.13;2.93;;;;;;;;;;5093022;28;20451;-76
2022/04/20 15:16:31;;;;;;;3.93;3.50;;;;;;;;;;5093675;28;20467;-77
2022/04/20 15:19:01;;;;;;;3.50;3.03;;;;;;;;;;5093604;28;20515;-77
2022/04/20 15:21:37;;;;;;;3.60;3.30;;;;;;;;;;5092517;28;20456;-76
2022/04/20 15:24:06;;;;;;;3.60;3.40;;;;;;;;;;5093340;28;20476;-76
2022/04/20 15:26:34;;;;;;;3.80;3.60;;;;;;;;;;5093142;28;20479;-77
2022/04/20 15:29:03;;;;;;;3.60;3.30;;;;;;;;;;5093881;28;20534;-76
2022/04/20 15:31:39;;;;;;;3.70;3.50;;;;;;;;;;5093157;28;20851;-76
2022/04/20 15:34:06;;;;;;;4.47;3.70;;;;;;;;;;5092616;28;20799;-76
2022/04/20 15:36:36;;;;;;;4.27;3.40;;;;;;;;;;5094568;28;20460;-77
2022/04/20 15:39:03;;;;;;;4.27;3.87;;;;;;;;;;5093391;28;20459;-77
2022/04/20 15:41:30;;;;;;;10.40;4.30;;;;;;;;;;5092219;28;20452;-78